Time;durP1;ratioP1;P1;durP2;ratioP2;P2;SDS_P1;SDS_P2;PMS_P1;PMS_P2;Temp;Humidity;BMP_temperature;BMP_pressure;BME280_temperature;BME280_humidity;BME280_pressure;Samples;Min_cycle;Max_cycle;Signal;HPM_P1;HPM_P2
2023/04/18 00:01:44;;;;;;;12.95;10.20;;;9.00;99.90;;;;;;5010379;28;20037;-87
2023/04/18 00:04:10;;;;;;;14.90;9.80;;;9.00;99.90;;;;;;4992827;28;20056;-87
2023/04/18 00:06:36;;;;;;;16.20;10.77;;;9.00;99.90;;;;;;4999675;28;20049;-88
2023/04/18 00:09:02;;;;;;;20.10;10.30;;;9.00;99.90;;;;;;4981908;28;20116;-88
2023/04/18 00:11:29;;;;;;;18.52;10.82;;;9.00;99.90;;;;;;5014581;28;20037;-88
2023/04/18 00:13:56;;;;;;;17.92;11.88;;;8.90;99.90;;;;;;4986400;28;20041;-88
2023/04/18 00:16:22;;;;;;;16.73;11.30;;;8.90;99.90;;;;;;5017231;28;20372;-88
2023/04/18 00:18:48;;;;;;;16.13;10.95;;;8.90;99.90;;;;;;4997900;28;20418;-88
2023/04/18 00:21:16;;;;;;;17.42;10.82;;;8.90;99.90;;;;;;5003102;28;20572;-88
2023/04/18 00:23:42;;;;;;;17.45;10.82;;;8.80;99.90;;;;;;4992321;28;20187;-87
2023/04/18 00:26:07;;;;;;;17.73;10.45;;;8.80;99.90;;;;;;4984970;28;20563;-87
2023/04/18 00:28:33;;;;;;;16.38;10.82;;;8.80;99.90;;;;;;4990943;28;20488;-87
2023/04/18 00:30:59;;;;;;;14.52;9.48;;;8.70;99.90;;;;;;4994853;28;20037;-87
2023/04/18 00:33:25;;;;;;;19.67;11.00;;;8.70;99.90;;;;;;4997181;28;20156;-87
2023/04/18 00:35:50;;;;;;;15.80;10.55;;;8.70;99.90;;;;;;5008955;28;20804;-88
2023/04/18 00:38:16;;;;;;;15.50;9.70;;;8.70;99.90;;;;;;4990138;28;20423;-88
2023/04/18 00:40:42;;;;;;;17.95;10.27;;;8.70;99.90;;;;;;4997786;28;20052;-87
2023/04/18 00:43:07;;;;;;;18.95;10.52;;;8.70;99.90;;;;;;4989183;28;20096;-87
2023/04/18 00:45:34;;;;;;;13.82;10.10;;;8.70;99.90;;;;;;5019789;28;20047;-87
2023/04/18 00:48:00;;;;;;;16.65;9.55;;;8.90;99.90;;;;;;4995466;28;20050;-87
2023/04/18 00:50:26;;;;;;;14.00;9.13;;;8.60;99.90;;;;;;4992535;28;20057;-87
2023/04/18 00:52:52;;;;;;;13.50;8.60;;;8.50;99.90;;;;;;4985270;28;20539;-87
2023/04/18 00:55:19;;;;;;;15.43;9.45;;;8.50;99.90;;;;;;4994276;28;20152;-87
2023/04/18 00:57:45;;;;;;;15.05;9.27;;;8.50;99.90;;;;;;5010877;28;20052;-87
2023/04/18 01:00:11;;;;;;;11.05;8.00;;;8.50;99.90;;;;;;5011434;28;20047;-87
2023/04/18 01:02:39;;;;;;;13.70;8.38;;;8.40;99.90;;;;;;5018205;28;20048;-87
2023/04/18 01:05:06;;;;;;;11.43;8.13;;;8.40;99.90;;;;;;4985970;28;20044;-88
2023/04/18 01:07:33;;;;;;;12.93;8.57;;;8.40;99.90;;;;;;4984048;28;20057;-87
2023/04/18 01:10:00;;;;;;;12.48;8.52;;;8.40;99.90;;;;;;5013741;28;20089;-87
2023/04/18 01:12:26;;;;;;;12.88;8.50;;;8.30;99.90;;;;;;4994844;28;20057;-87
2023/04/18 01:14:51;;;;;;;14.30;8.75;;;8.30;99.90;;;;;;4995677;28;20428;-87
2023/04/18 01:17:18;;;;;;;13.38;8.35;;;8.30;99.90;;;;;;4988169;28;20045;-87
2023/04/18 01:19:45;;;;;;;13.93;9.07;;;8.20;99.90;;;;;;4999214;28;20045;-87
2023/04/18 01:22:13;;;;;;;12.02;7.97;;;8.20;99.90;;;;;;5011931;28;20067;-87
2023/04/18 01:24:39;;;;;;;13.95;8.02;;;8.20;99.90;;;;;;5020317;28;20046;-87
2023/04/18 01:27:05;;;;;;;12.30;7.90;;;8.20;99.90;;;;;;5019172;28;20041;-87
2023/04/18 01:29:31;;;;;;;12.20;8.65;;;8.20;99.90;;;;;;4991302;28;20053;-87
2023/04/18 01:31:56;;;;;;;12.23;8.27;;;8.10;99.90;;;;;;5008062;28;20492;-88
2023/04/18 01:34:22;;;;;;;14.98;8.73;;;8.10;99.90;;;;;;4998137;28;20137;-88
2023/04/18 01:36:48;;;;;;;15.70;8.65;;;8.10;99.90;;;;;;4996239;28;20053;-88
2023/04/18 01:39:14;;;;;;;14.05;9.13;;;8.00;99.90;;;;;;5004273;28;20061;-87
2023/04/18 01:41:41;;;;;;;16.50;7.85;;;8.00;99.90;;;;;;4987204;28;20225;-88
2023/04/18 01:44:06;;;;;;;14.77;9.15;;;8.00;99.90;;;;;;5011817;28;20041;-87
2023/04/18 01:46:32;;;;;;;13.88;9.27;;;8.00;99.90;;;;;;5024146;28;20040;-87
2023/04/18 01:48:58;;;;;;;13.30;8.77;;;8.00;99.90;;;;;;4999783;28;20061;-87
2023/04/18 01:51:25;;;;;;;13.50;9.25;;;7.90;99.90;;;;;;4997576;28;20041;-87
2023/04/18 01:53:50;;;;;;;12.27;9.00;;;8.00;99.90;;;;;;5017790;28;20053;-87
2023/04/18 01:56:16;;;;;;;16.75;9.40;;;8.00;99.90;;;;;;5009880;28;20597;-87
2023/04/18 01:58:42;;;;;;;17.42;10.32;;;8.00;99.90;;;;;;5011496;28;20081;-87
2023/04/18 02:01:08;;;;;;;15.20;9.07;;;8.10;99.90;;;;;;5018011;28;20131;-86
2023/04/18 02:03:33;;;;;;;16.73;9.57;;;8.00;99.90;;;;;;5020539;28;20681;-87
2023/04/18 02:06:00;;;;;;;12.73;9.15;;;8.00;99.90;;;;;;4993068;28;20042;-87
2023/04/18 02:08:26;;;;;;;14.90;9.35;;;8.00;99.90;;;;;;5013318;28;20357;-88
2023/04/18 02:10:52;;;;;;;14.98;9.63;;;8.10;99.90;;;;;;5017130;28;20041;-87
2023/04/18 02:13:17;;;;;;;16.73;9.73;;;8.00;99.90;;;;;;5005367;28;20041;-87
2023/04/18 02:15:44;;;;;;;13.70;9.07;;;8.00;99.90;;;;;;5015869;28;20045;-88
2023/04/18 02:18:10;;;;;;;14.85;9.85;;;8.00;99.90;;;;;;4998704;28;20041;-87
2023/04/18 02:20:36;;;;;;;14.23;9.43;;;8.00;99.90;;;;;;5005122;28;20045;-87
2023/04/18 02:23:02;;;;;;;16.38;10.13;;;8.00;99.90;;;;;;5004815;28;20045;-88
2023/04/18 02:25:28;;;;;;;13.95;9.32;;;8.20;99.90;;;;;;5004189;28;20503;-87
2023/04/18 02:27:55;;;;;;;13.82;10.43;;;8.00;99.90;;;;;;5022017;28;20041;-87
2023/04/18 02:30:21;;;;;;;15.10;9.25;;;8.00;99.90;;;;;;5019182;28;20522;-87
2023/04/18 02:32:50;;;;;;;15.85;10.43;;;8.00;99.90;;;;;;5017667;28;20046;-88
2023/04/18 02:35:16;;;;;;;14.55;9.13;;;8.00;99.90;;;;;;5009279;28;20041;-87
2023/04/18 02:37:42;;;;;;;15.48;9.10;;;8.00;99.90;;;;;;4996098;28;20822;-87
2023/04/18 02:40:08;;;;;;;14.68;9.00;;;8.00;99.90;;;;;;4994831;28;20087;-87
2023/04/18 02:42:34;;;;;;;14.45;8.43;;;8.00;99.90;;;;;;5017384;28;20045;-87
2023/04/18 02:44:59;;;;;;;14.35;8.52;;;8.00;99.90;;;;;;5001368;28;20041;-86
2023/04/18 02:47:25;;;;;;;12.65;7.95;;;8.00;99.90;;;;;;5019779;28;20049;-87
2023/04/18 02:49:50;;;;;;;14.55;8.63;;;8.00;99.90;;;;;;4993487;28;20056;-88
2023/04/18 02:52:16;;;;;;;16.35;9.25;;;8.00;99.90;;;;;;4999207;28;20685;-87
2023/04/18 02:54:42;;;;;;;13.05;7.80;;;8.00;99.90;;;;;;5003891;28;20057;-87
2023/04/18 02:57:07;;;;;;;13.95;8.20;;;8.00;99.90;;;;;;5016343;28;20046;-87
2023/04/18 02:59:33;;;;;;;13.73;8.43;;;8.00;99.90;;;;;;4998065;28;20041;-87
2023/04/18 03:01:59;;;;;;;10.82;7.43;;;8.00;99.90;;;;;;4997252;28;20049;-87
2023/04/18 03:04:24;;;;;;;11.50;7.78;;;8.00;99.90;;;;;;5004113;28;20050;-87
2023/04/18 03:06:50;;;;;;;12.68;7.55;;;8.20;99.90;;;;;;4999741;28;20045;-87
2023/04/18 03:09:15;;;;;;;13.75;7.90;;;8.00;99.90;;;;;;4998304;28;20033;-88
2023/04/18 03:11:41;;;;;;;13.05;7.38;;;7.90;99.90;;;;;;4992282;28;20037;-88
2023/04/18 03:14:07;;;;;;;13.05;7.93;;;7.90;99.90;;;;;;5016344;28;20052;-87
2023/04/18 03:16:33;;;;;;;14.05;8.18;;;7.90;99.90;;;;;;4990789;28;20551;-87
2023/04/18 03:18:58;;;;;;;12.57;7.50;;;7.90;99.90;;;;;;5001754;28;20516;-88
2023/04/18 03:21:24;;;;;;;12.40;7.88;;;7.90;99.90;;;;;;4992066;28;20085;-87
2023/04/18 03:23:51;;;;;;;11.80;7.50;;;7.90;99.90;;;;;;4993404;28;20045;-88
2023/04/18 03:26:17;;;;;;;13.30;7.65;;;7.90;99.90;;;;;;4990509;28;20069;-87
2023/04/18 03:28:43;;;;;;;11.50;7.57;;;7.90;99.90;;;;;;5005451;28;20164;-87
2023/04/18 03:31:09;;;;;;;11.30;8.32;;;7.90;99.90;;;;;;5016592;28;20566;-87
2023/04/18 03:33:35;;;;;;;11.30;6.93;;;7.90;99.90;;;;;;4990383;28;20103;-87
2023/04/18 03:36:00;;;;;;;12.27;7.68;;;7.90;99.90;;;;;;5009937;28;20088;-87
2023/04/18 03:38:26;;;;;;;12.45;7.97;;;7.90;99.90;;;;;;5003241;28;20131;-87
2023/04/18 03:40:52;;;;;;;12.30;7.20;;;7.90;99.90;;;;;;4997356;28;20042;-87
2023/04/18 03:43:19;;;;;;;13.30;7.70;;;7.90;99.90;;;;;;5008201;28;20041;-88
2023/04/18 03:45:46;;;;;;;11.25;7.30;;;7.90;99.90;;;;;;5015225;28;20041;-87
2023/04/18 03:48:13;;;;;;;12.95;7.32;;;7.90;99.90;;;;;;5018199;28;20076;-87
2023/04/18 03:50:38;;;;;;;11.82;7.47;;;8.00;99.90;;;;;;5017312;28;20042;-86
2023/04/18 03:53:04;;;;;;;11.77;7.10;;;7.90;99.90;;;;;;5015599;28;20120;-87
2023/04/18 03:55:30;;;;;;;8.15;6.05;;;7.90;99.90;;;;;;4994605;28;20053;-87
2023/04/18 03:57:57;;;;;;;12.38;7.20;;;7.90;99.90;;;;;;4991439;28;20060;-87
2023/04/18 04:00:24;;;;;;;11.77;6.75;;;7.90;99.90;;;;;;4994048;28;20037;-87
2023/04/18 04:02:49;;;;;;;10.43;6.40;;;7.90;99.90;;;;;;5016366;28;20033;-87
2023/04/18 04:05:16;;;;;;;10.35;6.45;;;7.90;99.90;;;;;;4987110;28;20632;-87
2023/04/18 04:07:42;;;;;;;10.80;6.40;;;7.90;99.90;;;;;;4992967;28;20049;-87
2023/04/18 04:10:08;;;;;;;12.95;6.60;;;7.80;99.90;;;;;;4993521;28;20099;-87
2023/04/18 04:12:34;;;;;;;11.88;6.55;;;7.80;99.90;;;;;;5018857;28;20105;-87
2023/04/18 04:15:00;;;;;;;10.23;6.05;;;7.80;99.90;;;;;;4996219;28;20519;-88
2023/04/18 04:17:26;;;;;;;9.18;5.63;;;7.80;99.90;;;;;;5019598;28;20037;-87
2023/04/18 04:19:52;;;;;;;9.35;5.43;;;7.80;99.90;;;;;;5009645;28;20119;-87
2023/04/18 04:22:17;;;;;;;11.05;6.55;;;7.80;99.90;;;;;;5017058;28;20088;-87
2023/04/18 04:24:43;;;;;;;10.48;6.32;;;7.80;99.90;;;;;;4996108;28;20214;-87
2023/04/18 04:27:11;;;;;;;10.77;5.80;;;8.10;99.90;;;;;;5001603;28;20443;-85
2023/04/18 04:29:38;;;;;;;9.13;5.57;;;7.80;99.90;;;;;;4989023;28;20049;-87
2023/04/18 04:32:04;;;;;;;12.15;6.38;;;7.80;99.90;;;;;;5013838;28;20761;-87
2023/04/18 04:34:30;;;;;;;9.93;6.00;;;7.80;99.90;;;;;;5017801;28;20045;-87
2023/04/18 04:36:56;;;;;;;11.82;6.00;;;7.80;99.90;;;;;;4990043;28;20062;-87
2023/04/18 04:39:21;;;;;;;9.93;5.82;;;7.80;99.90;;;;;;4990751;28;20041;-87
2023/04/18 04:41:48;;;;;;;13.38;5.78;;;8.20;99.90;;;;;;5020617;28;20048;-87
2023/04/18 04:44:17;;;;;;;11.40;6.60;;;7.80;99.90;;;;;;5016530;28;20438;-87
2023/04/18 04:46:43;;;;;;;9.95;6.10;;;7.80;99.90;;;;;;5016889;28;20049;-87
2023/04/18 04:49:10;;;;;;;13.30;6.22;;;7.80;99.90;;;;;;5002206;28;20049;-87
2023/04/18 04:51:39;;;;;;;10.50;6.05;;;7.80;99.90;;;;;;5002296;28;20364;-86
2023/04/18 04:54:05;;;;;;;12.43;6.57;;;7.80;99.90;;;;;;5017913;28;20041;-88
2023/04/18 04:56:31;;;;;;;11.93;6.57;;;7.80;99.90;;;;;;5000237;28;20060;-87
2023/04/18 04:58:57;;;;;;;12.25;6.18;;;7.70;99.90;;;;;;5000157;28;20609;-88
2023/04/18 05:01:23;;;;;;;11.25;6.70;;;7.40;99.90;;;;;;4996944;28;20072;-88
2023/04/18 05:03:50;;;;;;;15.25;6.95;;;7.80;99.90;;;;;;4984723;28;20766;-87
2023/04/18 05:06:22;;;;;;;10.52;7.10;;;7.80;99.90;;;;;;4986264;28;20359;-88
2023/04/18 05:08:49;;;;;;;12.68;6.72;;;7.70;99.90;;;;;;5017603;28;20048;-87
2023/04/18 05:11:15;;;;;;;12.73;7.18;;;7.80;99.90;;;;;;4980612;28;20125;-88
2023/04/18 05:13:41;;;;;;;14.13;7.43;;;7.70;99.90;;;;;;5014556;28;20502;-87
2023/04/18 05:16:13;;;;;;;11.52;6.95;;;7.80;99.90;;;;;;5013168;28;20087;-88
2023/04/18 05:18:40;;;;;;;12.70;7.72;;;7.80;99.90;;;;;;5016288;28;20034;-87
2023/04/18 05:21:06;;;;;;;12.65;8.18;;;7.80;99.90;;;;;;5017731;28;20050;-88
2023/04/18 05:23:35;;;;;;;12.55;7.65;;;7.80;99.90;;;;;;4999501;28;20060;-88
2023/04/18 05:26:04;;;;;;;16.40;8.15;;;7.80;99.90;;;;;;4998846;28;20585;-88
2023/04/18 05:28:30;;;;;;;11.88;7.50;;;7.80;99.90;;;;;;5013901;28;20041;-88
2023/04/18 05:31:00;;;;;;;13.48;7.82;;;7.80;99.90;;;;;;5020942;28;20037;-94
2023/04/18 05:33:34;;;;;;;12.52;7.88;;;7.80;99.90;;;;;;5000352;28;20033;-93
2023/04/18 05:36:00;;;;;;;;;;;7.90;99.90;;;;;;5007369;28;20037;-91
2023/04/18 05:38:30;;;;;;;11.52;7.57;;;7.90;99.90;;;;;;5027738;28;19925;-94
2023/04/18 05:40:59;;;;;;;13.20;8.20;;;7.90;99.90;;;;;;5003924;28;20049;-92
2023/04/18 05:43:25;;;;;;;17.15;8.73;;;7.90;99.90;;;;;;5018067;28;20038;-92
2023/04/18 05:45:53;;;;;;;14.02;8.65;;;7.90;99.90;;;;;;4999736;28;20144;-93
2023/04/18 05:48:20;;;;;;;15.80;9.25;;;8.00;99.90;;;;;;5008043;28;20045;-93
2023/04/18 05:50:51;;;;;;;14.13;8.43;;;7.90;99.90;;;;;;5005487;28;20061;-90
2023/04/18 05:53:16;;;;;;;14.35;9.40;;;8.00;99.90;;;;;;5013873;28;20089;-92
2023/04/18 05:55:45;;;;;;;15.65;9.25;;;8.00;99.90;;;;;;5001585;28;20136;-89
2023/04/18 05:58:11;;;;;;;16.98;9.82;;;8.00;99.90;;;;;;4998496;28;20113;-89
2023/04/18 06:00:36;;;;;;;13.75;9.55;;;8.10;99.90;;;;;;5008378;28;20112;-92
2023/04/18 06:03:02;;;;;;;14.45;9.15;;;8.10;99.90;;;;;;5015428;28;20037;-89
2023/04/18 06:05:28;;;;;;;15.73;8.70;;;8.10;99.90;;;;;;4997705;28;20087;-88
2023/04/18 06:07:54;;;;;;;16.08;10.25;;;8.10;99.90;;;;;;5013047;28;20334;-88
2023/04/18 06:10:27;;;;;;;16.38;10.35;;;8.20;99.90;;;;;;5015037;28;20029;-93
2023/04/18 06:12:58;;;;;;;15.32;9.27;;;8.20;99.90;;;;;;5009753;28;20048;-92
2023/04/18 06:15:24;;;;;;;17.50;10.18;;;8.20;99.90;;;;;;5061902;23;20088;-93
2023/04/18 06:17:50;;;;;;;14.20;10.13;;;8.40;99.90;;;;;;5069557;28;20087;-94
2023/04/18 06:20:19;;;;;;;17.23;9.20;;;8.20;99.90;;;;;;5079942;28;20053;-88
2023/04/18 06:22:51;;;;;;;17.67;10.32;;;7.40;99.90;;;;;;5056644;28;20044;-95
2023/04/18 06:25:42;;;;;;;14.85;9.10;;;8.20;99.90;;;;;;5058562;28;20049;-90
2023/04/18 06:28:14;;;;;;;17.90;9.88;;;8.20;99.90;;;;;;5060795;28;20056;-91
2023/04/18 06:30:40;;;;;;;13.55;9.23;;;8.30;99.90;;;;;;5076519;28;20073;-90
2023/04/18 06:33:09;;;;;;;14.25;9.25;;;8.70;99.90;;;;;;5057988;28;20139;-91
2023/04/18 06:35:36;;;;;;;13.38;9.25;;;8.30;99.90;;;;;;5059992;28;20140;-92
2023/04/18 06:38:02;;;;;;;15.07;9.40;;;8.20;99.90;;;;;;5063882;28;20071;-89
2023/04/18 06:40:27;;;;;;;14.05;8.70;;;8.20;99.90;;;;;;5074236;28;20071;-89
2023/04/18 06:42:53;;;;;;;13.63;8.75;;;8.20;99.90;;;;;;5059498;28;20156;-90
2023/04/18 06:45:19;;;;;;;15.70;9.13;;;8.30;99.90;;;;;;5037516;28;20092;-90
2023/04/18 06:47:51;;;;;;;14.73;9.63;;;8.60;99.90;;;;;;5071151;28;20047;-90
2023/04/18 06:50:17;;;;;;;12.80;9.18;;;8.40;99.90;;;;;;5062182;28;20040;-89
2023/04/18 06:52:44;;;;;;;14.63;8.70;;;8.70;99.90;;;;;;5057428;28;20542;-89
2023/04/18 06:55:12;;;;;;;17.02;9.25;;;8.50;99.90;;;;;;5034624;28;20044;-89
2023/04/18 06:57:39;;;;;;;14.73;8.48;;;8.60;99.90;;;;;;5078611;28;20079;-89
2023/04/18 07:00:06;;;;;;;13.10;7.93;;;8.70;99.90;;;;;;5054407;28;20041;-89
2023/04/18 07:02:32;;;;;;;14.55;8.77;;;8.70;99.90;;;;;;5064628;28;20586;-90
2023/04/18 07:04:57;;;;;;;13.13;7.93;;;8.70;99.90;;;;;;5046968;28;20048;-89
2023/04/18 07:07:25;;;;;;;12.80;8.07;;;8.80;99.90;;;;;;5061192;28;20044;-89
2023/04/18 07:09:51;;;;;;;12.52;8.65;;;8.80;99.90;;;;;;5068532;28;20099;-89
2023/04/18 07:12:17;;;;;;;13.75;8.00;;;8.80;99.90;;;;;;5069577;28;20045;-90
2023/04/18 07:14:43;;;;;;;12.57;8.48;;;8.90;99.90;;;;;;5069628;28;20046;-90
2023/04/18 07:17:08;;;;;;;14.70;8.13;;;8.90;99.90;;;;;;5058459;28;20130;-90
2023/04/18 07:19:34;;;;;;;14.90;8.15;;;8.90;99.90;;;;;;5084649;28;20111;-90
2023/04/18 07:22:00;;;;;;;43.55;10.20;;;8.90;99.90;;;;;;5070570;28;20443;-89
2023/04/18 07:24:26;;;;;;;16.65;8.52;;;9.00;99.90;;;;;;5064103;28;20040;-90
2023/04/18 07:26:52;;;;;;;13.73;8.32;;;9.00;99.90;;;;;;5083947;28;20143;-89
2023/04/18 07:29:18;;;;;;;14.93;9.02;;;9.20;99.90;;;;;;5055687;28;20642;-89
2023/04/18 07:31:48;;;;;;;12.02;7.53;;;9.00;99.90;;;;;;5088705;28;20039;-90
2023/04/18 07:34:14;;;;;;;12.55;8.23;;;8.90;99.90;;;;;;5064835;28;20614;-89
2023/04/18 07:36:40;;;;;;;13.27;7.72;;;9.00;99.90;;;;;;5061345;28;20056;-89
2023/04/18 07:39:06;;;;;;;13.77;8.43;;;9.00;99.90;;;;;;5081954;28;20143;-89
2023/04/18 07:41:33;;;;;;;15.00;8.45;;;9.00;99.90;;;;;;5085449;28;20036;-88
2023/04/18 07:44:08;;;;;;;15.23;8.57;;;9.00;99.90;;;;;;5069834;28;20040;-88
2023/04/18 07:46:35;;;;;;;14.70;8.23;;;9.00;99.90;;;;;;5072735;28;20044;-88
2023/04/18 07:49:02;;;;;;;13.32;7.90;;;9.10;99.90;;;;;;5067489;28;20052;-89
2023/04/18 07:51:30;;;;;;;11.98;7.97;;;9.10;99.90;;;;;;5057907;28;20056;-90
2023/04/18 07:54:09;;;;;;;16.17;8.27;;;9.20;99.90;;;;;;5072622;28;20356;-89
2023/04/18 07:56:35;;;;;;;11.38;7.78;;;9.30;99.90;;;;;;5090237;28;20044;-88
2023/04/18 07:59:01;;;;;;;19.23;8.60;;;9.40;99.90;;;;;;5047757;22;1314912;-91
2023/04/18 08:01:30;;;;;;;14.25;7.68;;;9.40;99.90;;;;;;5092161;28;20086;-89
2023/04/18 08:04:00;;;;;;;13.40;8.38;;;9.50;99.90;;;;;;5059393;28;20569;-89
2023/04/18 08:06:26;;;;;;;15.18;7.97;;;9.50;99.90;;;;;;5092456;28;20086;-89
2023/04/18 08:08:52;;;;;;;13.27;8.25;;;9.60;99.90;;;;;;5091156;28;20044;-89
2023/04/18 08:11:20;;;;;;;13.35;8.25;;;9.60;99.90;;;;;;5089921;28;20046;-89
2023/04/18 08:13:49;;;;;;;14.13;7.88;;;9.80;99.90;;;;;;5071671;28;20056;-89
2023/04/18 08:16:18;;;;;;;13.25;7.72;;;9.70;99.90;;;;;;5089241;28;20032;-89
2023/04/18 08:18:43;;;;;;;12.50;7.53;;;9.80;99.90;;;;;;5079119;28;20052;-88
2023/04/18 08:21:09;;;;;;;12.60;7.25;;;9.90;99.90;;;;;;5074237;28;20097;-90
2023/04/18 08:23:35;;;;;;;12.63;7.32;;;10.00;99.90;;;;;;5093987;28;20039;-89
2023/04/18 08:26:00;;;;;;;13.77;7.57;;;10.10;99.90;;;;;;5077663;28;20040;-89
2023/04/18 08:28:26;;;;;;;14.25;7.00;;;10.20;99.90;;;;;;5074325;28;20125;-89
2023/04/18 08:30:53;;;;;;;12.23;6.85;;;10.30;99.90;;;;;;5073628;28;20054;-89
2023/04/18 08:33:25;;;;;;;10.45;7.47;;;10.30;99.90;;;;;;5055863;28;20089;-89
2023/04/18 08:35:51;;;;;;;11.45;6.70;;;10.30;99.90;;;;;;5074136;28;20048;-89
2023/04/18 08:38:20;;;;;;;13.02;7.22;;;10.40;99.90;;;;;;5069584;28;20044;-88
2023/04/18 08:40:49;;;;;;;12.52;7.63;;;10.40;99.90;;;;;;5089207;28;20554;-89
2023/04/18 08:43:15;;;;;;;11.82;7.63;;;10.50;99.90;;;;;;5068063;28;20040;-89
2023/04/18 08:45:44;;;;;;;10.30;7.05;;;10.60;99.90;;;;;;5072546;28;20114;-89
2023/04/18 08:48:15;;;;;;;11.68;7.78;;;10.60;99.90;;;;;;5066597;28;20047;-89
2023/04/18 08:50:41;;;;;;;10.90;7.07;;;10.70;99.90;;;;;;5057931;28;20054;-89
2023/04/18 08:53:07;;;;;;;12.38;6.45;;;10.80;99.90;;;;;;5087919;28;20043;-89
2023/04/18 08:55:33;;;;;;;11.57;6.38;;;10.90;99.90;;;;;;5087063;28;20040;-88
2023/04/18 08:57:59;;;;;;;11.85;6.38;;;11.20;99.90;;;;;;5090218;28;20058;-90
2023/04/18 09:00:26;;;;;;;9.77;5.50;;;11.30;99.90;;;;;;5097105;28;20108;-88
2023/04/18 09:02:57;;;;;;;9.48;6.22;;;11.50;99.90;;;;;;5087341;28;20058;-89
2023/04/18 09:05:25;;;;;;;11.70;6.10;;;11.60;99.90;;;;;;5069228;28;20035;-88
2023/04/18 09:07:55;;;;;;;13.82;6.18;;;11.80;99.90;;;;;;5076823;28;20116;-87
2023/04/18 09:10:27;;;;;;;8.93;6.07;;;11.80;99.90;;;;;;5068107;28;20047;-89
2023/04/18 09:12:55;;;;;;;12.02;6.88;;;11.90;99.90;;;;;;5087330;28;20040;-89
2023/04/18 09:15:23;;;;;;;12.02;6.60;;;12.00;99.90;;;;;;5086033;28;20040;-89
2023/04/18 09:17:54;;;;;;;10.23;6.03;;;12.20;99.90;;;;;;5067245;28;20138;-88
2023/04/18 09:20:39;;;;;;;11.07;6.63;;;12.30;99.90;;;;;;5075491;28;20095;-89
2023/04/18 09:23:20;;;;;;;9.30;7.03;;;12.40;99.90;;;;;;5096177;28;20052;-89
2023/04/18 09:25:47;;;;;;;11.48;7.00;;;12.50;99.90;;;;;;5072481;28;20063;-88
2023/04/18 09:28:26;;;;;;;9.45;6.63;;;12.70;99.90;;;;;;5069745;28;20126;-89
2023/04/18 09:30:53;;;;;;;10.90;6.88;;;12.80;99.90;;;;;;5074054;28;20048;-88
2023/04/18 09:33:35;;;;;;;11.48;6.93;;;12.80;99.90;;;;;;5090079;28;20043;-88
2023/04/18 09:36:26;;;;;;;9.70;6.53;;;12.90;99.90;;;;;;5085754;28;20044;-89
2023/04/18 09:38:53;;;;;;;9.43;6.18;;;13.00;99.90;;;;;;5091601;28;20048;-89
2023/04/18 09:41:19;;;;;;;15.10;7.20;;;13.00;99.90;;;;;;5073525;28;20569;-88
2023/04/18 09:43:46;;;;;;;9.50;6.53;;;13.10;99.90;;;;;;5066460;28;20564;-89
2023/04/18 09:46:12;;;;;;;10.90;6.78;;;13.20;99.90;;;;;;5064085;28;20154;-88
2023/04/18 09:48:39;;;;;;;12.85;7.22;;;13.30;99.90;;;;;;5081653;28;20481;-89
2023/04/18 09:51:08;;;;;;;9.43;6.10;;;13.40;99.90;;;;;;5073601;28;20139;-89
2023/04/18 09:53:38;;;;;;;11.18;6.85;;;13.50;99.90;;;;;;5087116;28;20058;-89
2023/04/18 09:56:08;;;;;;;12.27;7.40;;;13.60;99.90;;;;;;5075904;28;20043;-88
2023/04/18 09:58:39;;;;;;;12.25;6.97;;;13.60;99.90;;;;;;5069659;28;20056;-88
2023/04/18 10:01:06;;;;;;;10.10;6.50;;;13.70;99.90;;;;;;5076581;28;20040;-87
2023/04/18 10:03:43;;;;;;;10.20;6.55;;;14.00;99.90;;;;;;5079885;28;20104;-90
2023/04/18 10:06:10;;;;;;;9.45;6.80;;;13.80;99.90;;;;;;5076910;28;20040;-88
2023/04/18 10:08:38;;;;;;;11.93;6.35;;;13.90;99.90;;;;;;5055387;28;20186;-89
2023/04/18 10:11:04;;;;;;;10.57;7.03;;;13.90;99.90;;;;;;5075085;28;20066;-88
2023/04/18 10:13:30;;;;;;;12.50;7.47;;;14.00;99.90;;;;;;5101594;28;20043;-87
2023/04/18 10:15:56;;;;;;;12.30;6.93;;;14.10;99.90;;;;;;5067341;28;20055;-88
2023/04/18 10:18:23;;;;;;;11.52;6.90;;;14.10;99.90;;;;;;5095095;28;20044;-88
2023/04/18 10:20:49;;;;;;;11.23;6.75;;;14.20;99.90;;;;;;5078907;28;20470;-88
2023/04/18 10:23:35;;;;;;;11.90;7.28;;;14.20;99.90;;;;;;5102643;28;20032;-88
2023/04/18 10:26:02;;;;;;;8.88;6.15;;;14.30;99.90;;;;;;5068066;28;20137;-88
2023/04/18 10:28:51;;;;;;;12.23;7.32;;;14.40;99.90;;;;;;5096048;28;20048;-88
2023/04/18 10:31:17;;;;;;;13.48;7.50;;;14.50;99.90;;;;;;5083522;28;20398;-88
2023/04/18 10:33:48;;;;;;;17.15;7.57;;;14.60;99.90;;;;;;5075187;28;20042;-88
2023/04/18 10:36:18;;;;;;;9.93;6.68;;;14.70;99.90;;;;;;5091903;28;20051;-88
2023/04/18 10:38:48;;;;;;;11.50;7.70;;;14.80;99.90;;;;;;5084346;28;20050;-89
2023/04/18 10:41:37;;;;;;;13.50;7.95;;;14.90;99.90;;;;;;5093236;28;20040;-88
2023/04/18 10:44:10;;;;;;;11.63;6.85;;;14.90;99.90;;;;;;5078045;28;20032;-89
2023/04/18 10:46:36;;;;;;;11.00;6.95;;;15.00;99.90;;;;;;5072824;28;20040;-88
2023/04/18 10:49:18;;;;;;;16.67;7.10;;;15.10;99.90;;;;;;5076744;28;20096;-87
2023/04/18 10:51:48;;;;;;;10.50;7.65;;;15.10;99.90;;;;;;5094687;28;20094;-90
2023/04/18 10:54:48;;;;;;;10.48;6.93;;;15.20;99.90;;;;;;5059479;28;20047;-92
2023/04/18 10:57:14;;;;;;;13.68;7.03;;;15.30;99.90;;;;;;5078676;28;20047;-86
2023/04/18 10:59:47;;;;;;;10.88;6.70;;;15.40;99.90;;;;;;5097077;28;20047;-88
2023/04/18 11:02:29;;;;;;;11.15;6.50;;;15.50;99.90;;;;;;5091601;28;20036;-88
2023/04/18 11:04:57;;;;;;;11.70;6.28;;;15.60;99.90;;;;;;5086302;28;20043;-87
2023/04/18 11:07:36;;;;;;;10.52;6.43;;;15.70;99.90;;;;;;5091905;28;20044;-87
2023/04/18 11:10:04;;;;;;;10.32;6.72;;;15.80;99.60;;;;;;5083910;28;20135;-87
2023/04/18 11:12:31;;;;;;;8.68;5.95;;;15.80;99.80;;;;;;5085402;28;20494;-87
2023/04/18 11:14:58;;;;;;;9.55;6.35;;;15.90;99.20;;;;;;5085159;28;20043;-86
2023/04/18 11:17:26;;;;;;;14.45;6.70;;;15.90;98.60;;;;;;5071989;28;20054;-87
2023/04/18 11:20:07;;;;;;;9.98;6.68;;;15.90;99.00;;;;;;5083434;28;20071;-87
2023/04/18 11:22:45;;;;;;;9.95;6.70;;;16.00;99.10;;;;;;5066851;28;20490;-86
2023/04/18 11:25:11;;;;;;;10.20;6.80;;;16.00;99.50;;;;;;5071905;28;20036;-87
2023/04/18 11:27:39;;;;;;;10.55;6.90;;;16.10;99.50;;;;;;5067891;28;20123;-87
2023/04/18 11:30:06;;;;;;;10.63;7.13;;;16.30;99.90;;;;;;5073123;28;20066;-87
2023/04/18 11:32:33;;;;;;;12.68;7.50;;;16.20;99.90;;;;;;5070089;28;20039;-86
2023/04/18 11:34:58;;;;;;;9.35;6.95;;;16.40;99.60;;;;;;5071814;28;20127;-85
2023/04/18 11:37:24;;;;;;;13.75;7.00;;;16.40;99.40;;;;;;5050443;28;20089;-87
2023/04/18 11:39:52;;;;;;;10.88;7.32;;;16.60;98.80;;;;;;5066989;28;20044;-86
2023/04/18 11:42:19;;;;;;;12.38;7.65;;;16.60;98.80;;;;;;5085256;28;20101;-85
2023/04/18 11:44:46;;;;;;;10.18;6.70;;;16.70;98.90;;;;;;5086000;28;20115;-87
2023/04/18 11:47:24;;;;;;;10.48;6.70;;;16.80;97.90;;;;;;5084563;28;20483;-87
2023/04/18 11:49:55;;;;;;;11.68;7.55;;;16.80;97.70;;;;;;5065198;28;20044;-87
2023/04/18 11:52:21;;;;;;;11.07;7.40;;;16.80;97.70;;;;;;5074453;28;20557;-87
2023/04/18 11:54:46;;;;;;;11.48;7.18;;;16.80;98.20;;;;;;5069895;28;20044;-87
2023/04/18 11:57:33;;;;;;;10.00;6.95;;;16.90;98.40;;;;;;5088799;28;20048;-87
2023/04/18 12:00:00;;;;;;;13.18;6.43;;;17.10;98.70;;;;;;5057556;28;20051;-87
2023/04/18 12:02:42;;;;;;;10.02;6.72;;;17.30;98.40;;;;;;5067231;28;20516;-87
2023/04/18 12:05:13;;;;;;;10.05;6.70;;;17.30;98.70;;;;;;5073257;28;20044;-87
2023/04/18 12:07:44;;;;;;;9.52;6.50;;;17.40;98.00;;;;;;5090103;28;20053;-87
2023/04/18 12:10:19;;;;;;;8.85;6.38;;;17.50;97.70;;;;;;5050004;28;20132;-87
2023/04/18 12:12:49;;;;;;;8.25;5.68;;;17.60;97.00;;;;;;5070626;28;20808;-87
2023/04/18 12:15:16;;;;;;;7.78;5.90;;;17.60;96.50;;;;;;5064977;28;20036;-90
2023/04/18 12:17:52;;;;;;;9.65;6.00;;;17.60;96.70;;;;;;5086611;28;20079;-86
2023/04/18 12:20:17;;;;;;;7.78;5.72;;;17.60;97.30;;;;;;5089589;28;20036;-87
2023/04/18 12:22:50;;;;;;;9.63;6.32;;;17.70;97.40;;;;;;5077231;28;20059;-89
2023/04/18 12:25:23;;;;;;;9.68;6.13;;;17.70;96.90;;;;;;5089437;27;20047;-86
2023/04/18 12:27:50;;;;;;;9.13;5.90;;;17.90;97.40;;;;;;5061421;28;20051;-87
2023/04/18 12:30:18;;;;;;;7.32;5.15;;;17.80;96.70;;;;;;5088768;28;20048;-87
2023/04/18 12:32:44;;;;;;;8.93;5.68;;;17.80;97.00;;;;;;5085601;28;20043;-85
2023/04/18 12:35:10;;;;;;;7.05;4.82;;;17.80;97.60;;;;;;5089147;28;20047;-86
2023/04/18 12:37:36;;;;;;;9.35;5.28;;;17.90;96.70;;;;;;5091113;28;20420;-86
2023/04/18 12:40:01;;;;;;;6.65;4.78;;;18.00;96.60;;;;;;5089016;28;20707;-86
2023/04/18 12:42:27;;;;;;;9.23;4.53;;;18.10;96.50;;;;;;5064792;28;20032;-86
2023/04/18 12:44:53;;;;;;;7.32;5.15;;;18.20;96.60;;;;;;5068019;28;20117;-87
2023/04/18 12:47:19;;;;;;;9.70;4.30;;;18.30;95.80;;;;;;5074565;28;20575;-88